sensor_id;sensor_type;location;lat;lon;timestamp;P1;durP1;ratioP1;P2;durP2;ratioP2
84808;SDS011;75044;53.126;18.008;2024-02-28T00:00:52;26.70;;;14.50;;
84808;SDS011;75044;53.126;18.008;2024-02-28T00:02:15;22.00;;;11.90;;
84808;SDS011;75044;53.126;18.008;2024-02-28T00:03:19;24.00;;;13.00;;
84808;SDS011;75044;53.126;18.008;2024-02-28T00:04:22;22.70;;;12.20;;
84808;SDS011;75044;53.126;18.008;2024-02-28T00:06:30;25.70;;;12.50;;
84808;SDS011;75044;53.126;18.008;2024-02-28T00:07:33;27.50;;;13.50;;
84808;SDS011;75044;53.126;18.008;2024-02-28T00:08:37;24.30;;;12.90;;
84808;SDS011;75044;53.126;18.008;2024-02-28T00:09:40;20.40;;;12.30;;
84808;SDS011;75044;53.126;18.008;2024-02-28T00:10:44;23.20;;;11.80;;
84808;SDS011;75044;53.126;18.008;2024-02-28T00:12:50;21.50;;;12.50;;
84808;SDS011;75044;53.126;18.008;2024-02-28T00:13:53;23.20;;;13.90;;
84808;SDS011;75044;53.126;18.008;2024-02-28T00:14:57;24.80;;;14.70;;
84808;SDS011;75044;53.126;18.008;2024-02-28T00:17:03;24.10;;;13.20;;
84808;SDS011;75044;53.126;18.008;2024-02-28T00:18:07;25.60;;;13.30;;
84808;SDS011;75044;53.126;18.008;2024-02-28T00:19:11;29.90;;;17.10;;
84808;SDS011;75044;53.126;18.008;2024-02-28T00:20:15;28.10;;;14.70;;
84808;SDS011;75044;53.126;18.008;2024-02-28T00:21:20;29.20;;;14.60;;
84808;SDS011;75044;53.126;18.008;2024-02-28T00:22:23;26.70;;;13.40;;
84808;SDS011;75044;53.126;18.008;2024-02-28T00:23:26;24.90;;;14.80;;
84808;SDS011;75044;53.126;18.008;2024-02-28T00:24:30;25.50;;;13.10;;
84808;SDS011;75044;53.126;18.008;2024-02-28T00:25:33;27.70;;;15.50;;
84808;SDS011;75044;53.126;18.008;2024-02-28T00:26:41;30.40;;;16.40;;
84808;SDS011;75044;53.126;18.008;2024-02-28T00:27:45;28.70;;;14.60;;
84808;SDS011;75044;53.126;18.008;2024-02-28T00:28:48;29.70;;;15.60;;
84808;SDS011;75044;53.126;18.008;2024-02-28T00:29:52;29.60;;;16.70;;
84808;SDS011;75044;53.126;18.008;2024-02-28T00:30:55;32.40;;;15.50;;
84808;SDS011;75044;53.126;18.008;2024-02-28T00:32:02;30.20;;;14.70;;
84808;SDS011;75044;53.126;18.008;2024-02-28T00:34:08;29.90;;;15.10;;
84808;SDS011;75044;53.126;18.008;2024-02-28T00:35:13;28.60;;;13.70;;
84808;SDS011;75044;53.126;18.008;2024-02-28T00:36:19;26.30;;;14.40;;
84808;SDS011;75044;53.126;18.008;2024-02-28T00:37:23;26.10;;;13.50;;
84808;SDS011;75044;53.126;18.008;2024-02-28T00:38:27;26.60;;;14.40;;
84808;SDS011;75044;53.126;18.008;2024-02-28T00:40:35;29.80;;;14.00;;
84808;SDS011;75044;53.126;18.008;2024-02-28T00:41:38;29.90;;;14.20;;
84808;SDS011;75044;53.126;18.008;2024-02-28T00:42:41;28.00;;;13.40;;
84808;SDS011;75044;53.126;18.008;2024-02-28T00:43:46;25.90;;;14.40;;
84808;SDS011;75044;53.126;18.008;2024-02-28T00:44:49;27.40;;;14.60;;
84808;SDS011;75044;53.126;18.008;2024-02-28T00:45:52;29.60;;;17.50;;
84808;SDS011;75044;53.126;18.008;2024-02-28T00:46:55;28.10;;;14.60;;
84808;SDS011;75044;53.126;18.008;2024-02-28T00:48:00;27.90;;;15.20;;
84808;SDS011;75044;53.126;18.008;2024-02-28T00:49:03;35.40;;;15.70;;
84808;SDS011;75044;53.126;18.008;2024-02-28T00:51:11;25.10;;;13.80;;
84808;SDS011;75044;53.126;18.008;2024-02-28T00:52:14;25.00;;;14.90;;
84808;SDS011;75044;53.126;18.008;2024-02-28T00:53:18;27.70;;;14.40;;
84808;SDS011;75044;53.126;18.008;2024-02-28T00:54:22;31.00;;;16.50;;
84808;SDS011;75044;53.126;18.008;2024-02-28T00:55:29;31.90;;;15.00;;
84808;SDS011;75044;53.126;18.008;2024-02-28T00:56:34;28.90;;;15.20;;
84808;SDS011;75044;53.126;18.008;2024-02-28T00:57:37;26.60;;;14.40;;
84808;SDS011;75044;53.126;18.008;2024-02-28T00:58:41;26.50;;;15.20;;
84808;SDS011;75044;53.126;18.008;2024-02-28T00:59:48;30.90;;;15.00;;
84808;SDS011;75044;53.126;18.008;2024-02-28T01:00:54;30.40;;;14.70;;
84808;SDS011;75044;53.126;18.008;2024-02-28T01:01:57;29.00;;;15.90;;
84808;SDS011;75044;53.126;18.008;2024-02-28T01:03:01;27.00;;;14.40;;
84808;SDS011;75044;53.126;18.008;2024-02-28T01:04:06;28.70;;;16.30;;
84808;SDS011;75044;53.126;18.008;2024-02-28T01:05:11;33.50;;;15.70;;
84808;SDS011;75044;53.126;18.008;2024-02-28T01:06:14;30.50;;;15.10;;
84808;SDS011;75044;53.126;18.008;2024-02-28T01:07:20;31.60;;;14.60;;
84808;SDS011;75044;53.126;18.008;2024-02-28T01:09:27;28.60;;;16.10;;
84808;SDS011;75044;53.126;18.008;2024-02-28T01:11:33;31.00;;;18.10;;
84808;SDS011;75044;53.126;18.008;2024-02-28T01:12:37;29.30;;;14.00;;
84808;SDS011;75044;53.126;18.008;2024-02-28T01:14:43;34.50;;;14.00;;
84808;SDS011;75044;53.126;18.008;2024-02-28T01:16:49;31.90;;;15.40;;
84808;SDS011;75044;53.126;18.008;2024-02-28T01:17:53;32.00;;;14.80;;
84808;SDS011;75044;53.126;18.008;2024-02-28T01:18:56;31.00;;;15.60;;
84808;SDS011;75044;53.126;18.008;2024-02-28T01:20:00;32.20;;;15.00;;
84808;SDS011;75044;53.126;18.008;2024-02-28T01:21:03;32.80;;;17.60;;
84808;SDS011;75044;53.126;18.008;2024-02-28T01:22:07;32.20;;;16.70;;
84808;SDS011;75044;53.126;18.008;2024-02-28T01:23:11;31.70;;;16.10;;
84808;SDS011;75044;53.126;18.008;2024-02-28T01:24:15;33.50;;;16.10;;
84808;SDS011;75044;53.126;18.008;2024-02-28T01:25:18;31.00;;;15.80;;
84808;SDS011;75044;53.126;18.008;2024-02-28T01:26:23;33.90;;;15.50;;
84808;SDS011;75044;53.126;18.008;2024-02-28T01:27:26;32.50;;;17.80;;
84808;SDS011;75044;53.126;18.008;2024-02-28T01:28:30;30.50;;;15.70;;
84808;SDS011;75044;53.126;18.008;2024-02-28T01:29:34;31.50;;;15.30;;
84808;SDS011;75044;53.126;18.008;2024-02-28T01:30:37;34.60;;;15.00;;
84808;SDS011;75044;53.126;18.008;2024-02-28T01:31:40;33.00;;;15.60;;
84808;SDS011;75044;53.126;18.008;2024-02-28T01:32:43;35.00;;;17.80;;
84808;SDS011;75044;53.126;18.008;2024-02-28T01:33:48;30.10;;;16.60;;
84808;SDS011;75044;53.126;18.008;2024-02-28T01:34:52;33.00;;;15.90;;
84808;SDS011;75044;53.126;18.008;2024-02-28T01:35:55;32.80;;;14.80;;
84808;SDS011;75044;53.126;18.008;2024-02-28T01:36:58;27.60;;;14.40;;
84808;SDS011;75044;53.126;18.008;2024-02-28T01:38:02;33.00;;;20.00;;
84808;SDS011;75044;53.126;18.008;2024-02-28T01:39:05;31.60;;;15.70;;
84808;SDS011;75044;53.126;18.008;2024-02-28T01:40:08;27.80;;;16.20;;
84808;SDS011;75044;53.126;18.008;2024-02-28T01:41:11;27.30;;;14.20;;
84808;SDS011;75044;53.126;18.008;2024-02-28T01:43:19;30.60;;;14.40;;
84808;SDS011;75044;53.126;18.008;2024-02-28T01:44:22;30.10;;;15.00;;
84808;SDS011;75044;53.126;18.008;2024-02-28T01:45:26;27.90;;;14.80;;
84808;SDS011;75044;53.126;18.008;2024-02-28T01:46:29;32.30;;;15.00;;
84808;SDS011;75044;53.126;18.008;2024-02-28T01:47:34;29.10;;;15.00;;
84808;SDS011;75044;53.126;18.008;2024-02-28T01:48:37;31.80;;;15.10;;
84808;SDS011;75044;53.126;18.008;2024-02-28T01:49:41;25.80;;;13.40;;
84808;SDS011;75044;53.126;18.008;2024-02-28T01:50:45;28.60;;;14.30;;
84808;SDS011;75044;53.126;18.008;2024-02-28T01:51:49;28.80;;;14.80;;
84808;SDS011;75044;53.126;18.008;2024-02-28T01:52:53;27.50;;;14.20;;
84808;SDS011;75044;53.126;18.008;2024-02-28T01:53:57;29.60;;;14.80;;
84808;SDS011;75044;53.126;18.008;2024-02-28T01:55:04;29.20;;;15.30;;
84808;SDS011;75044;53.126;18.008;2024-02-28T01:56:08;28.50;;;14.40;;
84808;SDS011;75044;53.126;18.008;2024-02-28T01:57:13;26.20;;;13.30;;
84808;SDS011;75044;53.126;18.008;2024-02-28T01:58:17;28.30;;;15.00;;
84808;SDS011;75044;53.126;18.008;2024-02-28T01:59:23;25.30;;;12.90;;
84808;SDS011;75044;53.126;18.008;2024-02-28T02:00:29;26.20;;;14.40;;
84808;SDS011;75044;53.126;18.008;2024-02-28T02:02:35;29.90;;;13.40;;
84808;SDS011;75044;53.126;18.008;2024-02-28T02:03:38;29.10;;;17.60;;
84808;SDS011;75044;53.126;18.008;2024-02-28T02:04:42;30.90;;;13.90;;
84808;SDS011;75044;53.126;18.008;2024-02-28T02:05:45;26.80;;;14.20;;
84808;SDS011;75044;53.126;18.008;2024-02-28T02:06:48;30.00;;;19.30;;
84808;SDS011;75044;53.126;18.008;2024-02-28T02:07:52;26.80;;;13.50;;
84808;SDS011;75044;53.126;18.008;2024-02-28T02:08:57;21.00;;;12.40;;
84808;SDS011;75044;53.126;18.008;2024-02-28T02:10:01;26.70;;;13.40;;
84808;SDS011;75044;53.126;18.008;2024-02-28T02:11:08;25.70;;;14.30;;
84808;SDS011;75044;53.126;18.008;2024-02-28T02:12:11;22.30;;;12.60;;
84808;SDS011;75044;53.126;18.008;2024-02-28T02:13:20;26.20;;;13.40;;
84808;SDS011;75044;53.126;18.008;2024-02-28T02:14:23;35.10;;;16.60;;
84808;SDS011;75044;53.126;18.008;2024-02-28T02:16:31;29.30;;;12.90;;
84808;SDS011;75044;53.126;18.008;2024-02-28T02:17:34;27.10;;;13.10;;
84808;SDS011;75044;53.126;18.008;2024-02-28T02:18:37;31.00;;;14.60;;
84808;SDS011;75044;53.126;18.008;2024-02-28T02:19:41;26.10;;;13.60;;
84808;SDS011;75044;53.126;18.008;2024-02-28T02:20:46;28.40;;;14.00;;
84808;SDS011;75044;53.126;18.008;2024-02-28T02:22:03;27.10;;;13.20;;
84808;SDS011;75044;53.126;18.008;2024-02-28T02:23:10;24.00;;;13.10;;
84808;SDS011;75044;53.126;18.008;2024-02-28T02:24:16;22.00;;;11.10;;
84808;SDS011;75044;53.126;18.008;2024-02-28T02:25:19;27.40;;;12.80;;
84808;SDS011;75044;53.126;18.008;2024-02-28T02:26:23;27.00;;;12.70;;
84808;SDS011;75044;53.126;18.008;2024-02-28T02:27:26;22.40;;;12.10;;
84808;SDS011;75044;53.126;18.008;2024-02-28T02:29:32;25.20;;;12.20;;
84808;SDS011;75044;53.126;18.008;2024-02-28T02:31:39;23.60;;;12.80;;
84808;SDS011;75044;53.126;18.008;2024-02-28T02:32:43;28.20;;;13.40;;
84808;SDS011;75044;53.126;18.008;2024-02-28T02:33:46;25.10;;;13.60;;
84808;SDS011;75044;53.126;18.008;2024-02-28T02:35:53;24.60;;;11.50;;
84808;SDS011;75044;53.126;18.008;2024-02-28T02:36:56;25.30;;;13.10;;
84808;SDS011;75044;53.126;18.008;2024-02-28T02:38:00;30.80;;;12.90;;
84808;SDS011;75044;53.126;18.008;2024-02-28T02:40:06;26.80;;;12.90;;
84808;SDS011;75044;53.126;18.008;2024-02-28T02:41:11;25.90;;;11.70;;
84808;SDS011;75044;53.126;18.008;2024-02-28T02:42:15;19.70;;;10.70;;
84808;SDS011;75044;53.126;18.008;2024-02-28T02:43:19;27.10;;;12.70;;
84808;SDS011;75044;53.126;18.008;2024-02-28T02:44:23;28.60;;;13.00;;
84808;SDS011;75044;53.126;18.008;2024-02-28T02:45:27;24.50;;;12.20;;
84808;SDS011;75044;53.126;18.008;2024-02-28T02:46:30;27.70;;;14.10;;
84808;SDS011;75044;53.126;18.008;2024-02-28T02:48:36;25.80;;;13.10;;
84808;SDS011;75044;53.126;18.008;2024-02-28T02:49:39;29.50;;;13.90;;
84808;SDS011;75044;53.126;18.008;2024-02-28T02:50:43;25.90;;;14.10;;
84808;SDS011;75044;53.126;18.008;2024-02-28T02:51:46;32.50;;;15.90;;
84808;SDS011;75044;53.126;18.008;2024-02-28T02:53:53;30.40;;;14.10;;
84808;SDS011;75044;53.126;18.008;2024-02-28T02:54:56;26.10;;;13.90;;
84808;SDS011;75044;53.126;18.008;2024-02-28T02:55:59;31.80;;;13.60;;
84808;SDS011;75044;53.126;18.008;2024-02-28T02:57:02;29.60;;;18.20;;
84808;SDS011;75044;53.126;18.008;2024-02-28T02:58:06;28.20;;;14.40;;
84808;SDS011;75044;53.126;18.008;2024-02-28T02:59:10;29.80;;;14.10;;
84808;SDS011;75044;53.126;18.008;2024-02-28T03:00:14;28.00;;;14.70;;
84808;SDS011;75044;53.126;18.008;2024-02-28T03:01:19;28.80;;;14.80;;
84808;SDS011;75044;53.126;18.008;2024-02-28T03:02:22;31.60;;;16.60;;
84808;SDS011;75044;53.126;18.008;2024-02-28T03:03:28;29.20;;;12.80;;
84808;SDS011;75044;53.126;18.008;2024-02-28T03:04:31;32.50;;;15.00;;
84808;SDS011;75044;53.126;18.008;2024-02-28T03:05:34;30.10;;;14.10;;
84808;SDS011;75044;53.126;18.008;2024-02-28T03:06:37;32.20;;;15.20;;
84808;SDS011;75044;53.126;18.008;2024-02-28T03:07:41;30.20;;;14.60;;
84808;SDS011;75044;53.126;18.008;2024-02-28T03:08:44;33.50;;;13.90;;
84808;SDS011;75044;53.126;18.008;2024-02-28T03:09:47;30.20;;;14.80;;
84808;SDS011;75044;53.126;18.008;2024-02-28T03:10:50;28.70;;;14.90;;
84808;SDS011;75044;53.126;18.008;2024-02-28T03:11:53;33.80;;;14.60;;
84808;SDS011;75044;53.126;18.008;2024-02-28T03:12:57;27.80;;;13.60;;
84808;SDS011;75044;53.126;18.008;2024-02-28T03:14:01;27.50;;;13.40;;
84808;SDS011;75044;53.126;18.008;2024-02-28T03:15:05;31.10;;;16.70;;
84808;SDS011;75044;53.126;18.008;2024-02-28T03:16:09;28.90;;;14.70;;
84808;SDS011;75044;53.126;18.008;2024-02-28T03:17:13;28.60;;;14.80;;
84808;SDS011;75044;53.126;18.008;2024-02-28T03:18:16;30.00;;;15.00;;
84808;SDS011;75044;53.126;18.008;2024-02-28T03:19:19;31.20;;;14.30;;
84808;SDS011;75044;53.126;18.008;2024-02-28T03:20:23;27.10;;;13.90;;
84808;SDS011;75044;53.126;18.008;2024-02-28T03:21:29;23.60;;;13.10;;
84808;SDS011;75044;53.126;18.008;2024-02-28T03:22:32;24.70;;;12.80;;
84808;SDS011;75044;53.126;18.008;2024-02-28T03:23:36;27.40;;;12.80;;
84808;SDS011;75044;53.126;18.008;2024-02-28T03:24:40;21.40;;;10.20;;
84808;SDS011;75044;53.126;18.008;2024-02-28T03:25:43;20.90;;;11.40;;
84808;SDS011;75044;53.126;18.008;2024-02-28T03:27:50;22.40;;;11.20;;
84808;SDS011;75044;53.126;18.008;2024-02-28T03:28:53;24.30;;;12.80;;
84808;SDS011;75044;53.126;18.008;2024-02-28T03:29:56;22.00;;;11.80;;
84808;SDS011;75044;53.126;18.008;2024-02-28T03:32:03;21.60;;;11.60;;
84808;SDS011;75044;53.126;18.008;2024-02-28T03:34:10;23.10;;;11.00;;
84808;SDS011;75044;53.126;18.008;2024-02-28T03:35:13;25.20;;;11.50;;
84808;SDS011;75044;53.126;18.008;2024-02-28T03:36:16;20.80;;;11.80;;
84808;SDS011;75044;53.126;18.008;2024-02-28T03:37:19;22.60;;;13.20;;
84808;SDS011;75044;53.126;18.008;2024-02-28T03:38:23;23.70;;;11.00;;
84808;SDS011;75044;53.126;18.008;2024-02-28T03:39:26;22.10;;;12.30;;
84808;SDS011;75044;53.126;18.008;2024-02-28T03:40:31;23.50;;;12.50;;
84808;SDS011;75044;53.126;18.008;2024-02-28T03:41:37;22.40;;;12.20;;
84808;SDS011;75044;53.126;18.008;2024-02-28T03:42:40;24.50;;;11.90;;
84808;SDS011;75044;53.126;18.008;2024-02-28T03:43:44;22.00;;;11.10;;
84808;SDS011;75044;53.126;18.008;2024-02-28T03:44:47;20.50;;;12.30;;
84808;SDS011;75044;53.126;18.008;2024-02-28T03:45:50;25.00;;;16.30;;
84808;SDS011;75044;53.126;18.008;2024-02-28T03:46:53;19.90;;;12.00;;
84808;SDS011;75044;53.126;18.008;2024-02-28T03:47:57;20.30;;;10.50;;
84808;SDS011;75044;53.126;18.008;2024-02-28T03:49:01;20.20;;;11.10;;
84808;SDS011;75044;53.126;18.008;2024-02-28T03:50:05;18.40;;;11.50;;
84808;SDS011;75044;53.126;18.008;2024-02-28T03:51:09;22.80;;;11.80;;
84808;SDS011;75044;53.126;18.008;2024-02-28T03:52:13;20.80;;;11.20;;
84808;SDS011;75044;53.126;18.008;2024-02-28T03:53:16;21.20;;;11.30;;
84808;SDS011;75044;53.126;18.008;2024-02-28T03:54:20;24.80;;;12.50;;
84808;SDS011;75044;53.126;18.008;2024-02-28T03:55:24;22.20;;;11.50;;
84808;SDS011;75044;53.126;18.008;2024-02-28T03:56:27;22.40;;;15.00;;
84808;SDS011;75044;53.126;18.008;2024-02-28T03:57:31;21.50;;;11.10;;
84808;SDS011;75044;53.126;18.008;2024-02-28T03:58:35;26.90;;;14.10;;
84808;SDS011;75044;53.126;18.008;2024-02-28T03:59:38;23.70;;;11.80;;
84808;SDS011;75044;53.126;18.008;2024-02-28T04:00:44;22.00;;;11.20;;
84808;SDS011;75044;53.126;18.008;2024-02-28T04:01:48;18.60;;;10.30;;
84808;SDS011;75044;53.126;18.008;2024-02-28T04:02:52;20.20;;;11.00;;
84808;SDS011;75044;53.126;18.008;2024-02-28T04:03:57;21.70;;;11.40;;
84808;SDS011;75044;53.126;18.008;2024-02-28T04:05:00;18.50;;;10.10;;
84808;SDS011;75044;53.126;18.008;2024-02-28T04:06:04;21.60;;;11.90;;
84808;SDS011;75044;53.126;18.008;2024-02-28T04:07:07;20.40;;;10.50;;
84808;SDS011;75044;53.126;18.008;2024-02-28T04:09:14;21.80;;;11.10;;
84808;SDS011;75044;53.126;18.008;2024-02-28T04:10:19;21.80;;;9.60;;
84808;SDS011;75044;53.126;18.008;2024-02-28T04:11:22;22.90;;;11.20;;
84808;SDS011;75044;53.126;18.008;2024-02-28T04:12:25;18.80;;;10.60;;
84808;SDS011;75044;53.126;18.008;2024-02-28T04:13:29;19.30;;;9.90;;
84808;SDS011;75044;53.126;18.008;2024-02-28T04:14:32;24.50;;;12.00;;
84808;SDS011;75044;53.126;18.008;2024-02-28T04:15:37;26.40;;;12.80;;
84808;SDS011;75044;53.126;18.008;2024-02-28T04:16:44;26.10;;;11.90;;
84808;SDS011;75044;53.126;18.008;2024-02-28T04:17:48;23.40;;;15.50;;
84808;SDS011;75044;53.126;18.008;2024-02-28T04:18:52;21.80;;;12.30;;
84808;SDS011;75044;53.126;18.008;2024-02-28T04:19:55;22.90;;;11.60;;
84808;SDS011;75044;53.126;18.008;2024-02-28T04:21:00;27.80;;;17.30;;
84808;SDS011;75044;53.126;18.008;2024-02-28T04:22:04;18.10;;;10.90;;
84808;SDS011;75044;53.126;18.008;2024-02-28T04:24:10;24.90;;;11.50;;
84808;SDS011;75044;53.126;18.008;2024-02-28T04:25:15;22.00;;;12.50;;
84808;SDS011;75044;53.126;18.008;2024-02-28T04:26:18;25.20;;;12.00;;
84808;SDS011;75044;53.126;18.008;2024-02-28T04:28:25;19.40;;;10.50;;
84808;SDS011;75044;53.126;18.008;2024-02-28T04:29:28;27.20;;;12.60;;
84808;SDS011;75044;53.126;18.008;2024-02-28T04:30:31;25.60;;;12.20;;
84808;SDS011;75044;53.126;18.008;2024-02-28T04:31:35;31.90;;;14.20;;
84808;SDS011;75044;53.126;18.008;2024-02-28T04:32:41;27.50;;;14.70;;
84808;SDS011;75044;53.126;18.008;2024-02-28T04:33:44;24.90;;;12.70;;
84808;SDS011;75044;53.126;18.008;2024-02-28T04:35:50;26.50;;;11.30;;
84808;SDS011;75044;53.126;18.008;2024-02-28T04:37:57;21.50;;;10.90;;
84808;SDS011;75044;53.126;18.008;2024-02-28T04:39:00;24.70;;;11.50;;
84808;SDS011;75044;53.126;18.008;2024-02-28T04:40:04;20.70;;;10.80;;
84808;SDS011;75044;53.126;18.008;2024-02-28T04:41:09;26.00;;;15.20;;
84808;SDS011;75044;53.126;18.008;2024-02-28T04:42:12;25.80;;;14.10;;
84808;SDS011;75044;53.126;18.008;2024-02-28T04:43:16;23.30;;;12.60;;
84808;SDS011;75044;53.126;18.008;2024-02-28T04:45:22;21.70;;;11.60;;
84808;SDS011;75044;53.126;18.008;2024-02-28T04:46:25;20.70;;;10.30;;
84808;SDS011;75044;53.126;18.008;2024-02-28T04:48:34;18.70;;;10.20;;
84808;SDS011;75044;53.126;18.008;2024-02-28T04:49:37;25.70;;;12.80;;
84808;SDS011;75044;53.126;18.008;2024-02-28T04:50:42;23.90;;;11.60;;
84808;SDS011;75044;53.126;18.008;2024-02-28T04:51:45;28.10;;;16.00;;
84808;SDS011;75044;53.126;18.008;2024-02-28T04:53:52;25.00;;;12.40;;
84808;SDS011;75044;53.126;18.008;2024-02-28T04:54:56;26.20;;;12.90;;
84808;SDS011;75044;53.126;18.008;2024-02-28T04:55:59;25.90;;;12.90;;
84808;SDS011;75044;53.126;18.008;2024-02-28T04:57:03;27.50;;;12.20;;
84808;SDS011;75044;53.126;18.008;2024-02-28T04:59:11;22.50;;;12.90;;
84808;SDS011;75044;53.126;18.008;2024-02-28T05:00:14;20.00;;;11.40;;
84808;SDS011;75044;53.126;18.008;2024-02-28T05:01:18;25.40;;;11.90;;
84808;SDS011;75044;53.126;18.008;2024-02-28T05:02:21;26.50;;;12.00;;
84808;SDS011;75044;53.126;18.008;2024-02-28T05:03:25;24.70;;;12.70;;
84808;SDS011;75044;53.126;18.008;2024-02-28T05:04:28;25.40;;;12.80;;
84808;SDS011;75044;53.126;18.008;2024-02-28T05:05:32;24.10;;;11.50;;
84808;SDS011;75044;53.126;18.008;2024-02-28T05:07:38;22.30;;;11.00;;
84808;SDS011;75044;53.126;18.008;2024-02-28T05:08:41;27.10;;;12.30;;
84808;SDS011;75044;53.126;18.008;2024-02-28T05:09:44;25.90;;;12.10;;
84808;SDS011;75044;53.126;18.008;2024-02-28T05:10:49;22.20;;;10.80;;
84808;SDS011;75044;53.126;18.008;2024-02-28T05:11:54;25.70;;;11.40;;
84808;SDS011;75044;53.126;18.008;2024-02-28T05:14:00;27.90;;;12.70;;
84808;SDS011;75044;53.126;18.008;2024-02-28T05:16:13;21.70;;;12.10;;
84808;SDS011;75044;53.126;18.008;2024-02-28T05:17:20;27.00;;;11.40;;
84808;SDS011;75044;53.126;18.008;2024-02-28T05:19:28;21.60;;;11.70;;
84808;SDS011;75044;53.126;18.008;2024-02-28T05:20:31;23.50;;;11.40;;
84808;SDS011;75044;53.126;18.008;2024-02-28T05:21:40;23.90;;;11.80;;
84808;SDS011;75044;53.126;18.008;2024-02-28T05:22:45;24.00;;;13.20;;
84808;SDS011;75044;53.126;18.008;2024-02-28T05:23:48;23.40;;;11.20;;
84808;SDS011;75044;53.126;18.008;2024-02-28T05:25:55;25.10;;;12.70;;
84808;SDS011;75044;53.126;18.008;2024-02-28T05:26:58;25.40;;;11.40;;
84808;SDS011;75044;53.126;18.008;2024-02-28T05:28:01;22.80;;;15.70;;
84808;SDS011;75044;53.126;18.008;2024-02-28T05:29:05;23.70;;;10.10;;
84808;SDS011;75044;53.126;18.008;2024-02-28T05:30:09;22.00;;;11.50;;
84808;SDS011;75044;53.126;18.008;2024-02-28T05:31:22;19.80;;;10.20;;
84808;SDS011;75044;53.126;18.008;2024-02-28T05:32:27;20.80;;;10.60;;
84808;SDS011;75044;53.126;18.008;2024-02-28T05:33:30;20.90;;;11.10;;
84808;SDS011;75044;53.126;18.008;2024-02-28T05:34:33;23.60;;;11.10;;
84808;SDS011;75044;53.126;18.008;2024-02-28T05:35:36;25.20;;;11.00;;
84808;SDS011;75044;53.126;18.008;2024-02-28T05:36:40;22.60;;;11.10;;
84808;SDS011;75044;53.126;18.008;2024-02-28T05:37:44;22.90;;;10.90;;
84808;SDS011;75044;53.126;18.008;2024-02-28T05:38:51;19.80;;;11.00;;
84808;SDS011;75044;53.126;18.008;2024-02-28T05:39:56;22.50;;;11.70;;
84808;SDS011;75044;53.126;18.008;2024-02-28T05:40:59;21.50;;;13.40;;
84808;SDS011;75044;53.126;18.008;2024-02-28T05:42:03;18.90;;;9.90;;
84808;SDS011;75044;53.126;18.008;2024-02-28T05:43:07;22.50;;;11.10;;
84808;SDS011;75044;53.126;18.008;2024-02-28T05:44:10;23.70;;;12.90;;
84808;SDS011;75044;53.126;18.008;2024-02-28T05:45:13;22.60;;;12.10;;
84808;SDS011;75044;53.126;18.008;2024-02-28T05:46:17;21.00;;;9.60;;
84808;SDS011;75044;53.126;18.008;2024-02-28T05:47:21;21.90;;;12.00;;
84808;SDS011;75044;53.126;18.008;2024-02-28T05:48:24;17.60;;;9.20;;
84808;SDS011;75044;53.126;18.008;2024-02-28T05:49:27;21.70;;;13.40;;
84808;SDS011;75044;53.126;18.008;2024-02-28T05:50:31;22.70;;;11.00;;
84808;SDS011;75044;53.126;18.008;2024-02-28T05:51:35;24.90;;;13.60;;
84808;SDS011;75044;53.126;18.008;2024-02-28T05:52:41;23.10;;;10.10;;
84808;SDS011;75044;53.126;18.008;2024-02-28T05:53:45;22.10;;;11.80;;
84808;SDS011;75044;53.126;18.008;2024-02-28T05:55:52;18.00;;;9.60;;
84808;SDS011;75044;53.126;18.008;2024-02-28T05:56:59;22.10;;;12.30;;
84808;SDS011;75044;53.126;18.008;2024-02-28T05:59:06;23.30;;;11.40;;
84808;SDS011;75044;53.126;18.008;2024-02-28T06:01:16;26.40;;;10.70;;
84808;SDS011;75044;53.126;18.008;2024-02-28T06:02:20;21.10;;;11.30;;
84808;SDS011;75044;53.126;18.008;2024-02-28T06:04:26;18.90;;;9.10;;
84808;SDS011;75044;53.126;18.008;2024-02-28T06:05:29;22.10;;;10.10;;
84808;SDS011;75044;53.126;18.008;2024-02-28T06:06:32;20.00;;;11.10;;
84808;SDS011;75044;53.126;18.008;2024-02-28T06:07:36;21.10;;;9.80;;
84808;SDS011;75044;53.126;18.008;2024-02-28T06:08:39;24.50;;;15.30;;
84808;SDS011;75044;53.126;18.008;2024-02-28T06:09:43;20.60;;;11.20;;
84808;SDS011;75044;53.126;18.008;2024-02-28T06:10:46;22.40;;;12.10;;
84808;SDS011;75044;53.126;18.008;2024-02-28T06:11:49;25.20;;;11.40;;
84808;SDS011;75044;53.126;18.008;2024-02-28T06:12:53;21.50;;;10.40;;
84808;SDS011;75044;53.126;18.008;2024-02-28T06:13:56;24.80;;;11.10;;
84808;SDS011;75044;53.126;18.008;2024-02-28T06:14:59;23.30;;;12.10;;
84808;SDS011;75044;53.126;18.008;2024-02-28T06:17:06;20.40;;;11.10;;
84808;SDS011;75044;53.126;18.008;2024-02-28T06:19:12;25.40;;;11.70;;
84808;SDS011;75044;53.126;18.008;2024-02-28T06:20:15;24.10;;;12.60;;
84808;SDS011;75044;53.126;18.008;2024-02-28T06:21:21;25.90;;;12.10;;
84808;SDS011;75044;53.126;18.008;2024-02-28T06:22:25;24.60;;;11.70;;
84808;SDS011;75044;53.126;18.008;2024-02-28T06:23:28;25.40;;;11.80;;
84808;SDS011;75044;53.126;18.008;2024-02-28T06:24:33;23.00;;;13.30;;
84808;SDS011;75044;53.126;18.008;2024-02-28T06:25:37;23.20;;;12.70;;
84808;SDS011;75044;53.126;18.008;2024-02-28T06:27:45;24.20;;;12.90;;
84808;SDS011;75044;53.126;18.008;2024-02-28T06:28:48;26.70;;;13.70;;
84808;SDS011;75044;53.126;18.008;2024-02-28T06:29:54;27.70;;;16.00;;
84808;SDS011;75044;53.126;18.008;2024-02-28T06:30:57;27.00;;;13.30;;
84808;SDS011;75044;53.126;18.008;2024-02-28T06:32:00;22.20;;;12.90;;
84808;SDS011;75044;53.126;18.008;2024-02-28T06:33:04;21.20;;;12.40;;
84808;SDS011;75044;53.126;18.008;2024-02-28T06:34:07;24.20;;;12.40;;
84808;SDS011;75044;53.126;18.008;2024-02-28T06:35:10;20.70;;;11.20;;
84808;SDS011;75044;53.126;18.008;2024-02-28T06:36:14;27.30;;;11.50;;
84808;SDS011;75044;53.126;18.008;2024-02-28T06:37:17;27.00;;;12.10;;
84808;SDS011;75044;53.126;18.008;2024-02-28T06:38:20;23.70;;;12.00;;
84808;SDS011;75044;53.126;18.008;2024-02-28T06:39:23;25.10;;;13.50;;
84808;SDS011;75044;53.126;18.008;2024-02-28T06:40:27;23.80;;;11.40;;
84808;SDS011;75044;53.126;18.008;2024-02-28T06:41:31;24.50;;;12.90;;
84808;SDS011;75044;53.126;18.008;2024-02-28T06:43:39;23.90;;;11.40;;
84808;SDS011;75044;53.126;18.008;2024-02-28T06:45:46;25.60;;;12.70;;
84808;SDS011;75044;53.126;18.008;2024-02-28T06:46:49;22.70;;;11.00;;
84808;SDS011;75044;53.126;18.008;2024-02-28T06:48:55;25.60;;;12.10;;
84808;SDS011;75044;53.126;18.008;2024-02-28T06:49:58;30.30;;;12.90;;
84808;SDS011;75044;53.126;18.008;2024-02-28T06:51:04;24.70;;;10.90;;
84808;SDS011;75044;53.126;18.008;2024-02-28T06:52:08;23.90;;;10.40;;
84808;SDS011;75044;53.126;18.008;2024-02-28T06:53:12;27.40;;;12.40;;
84808;SDS011;75044;53.126;18.008;2024-02-28T06:54:15;20.10;;;11.30;;
84808;SDS011;75044;53.126;18.008;2024-02-28T06:56:22;28.00;;;12.80;;
84808;SDS011;75044;53.126;18.008;2024-02-28T06:57:25;24.50;;;12.10;;
84808;SDS011;75044;53.126;18.008;2024-02-28T06:58:28;24.00;;;12.20;;